sensor_id;sensor_type;location;lat;lon;timestamp;pressure;altitude;pressure_sealevel;temperature;humidity
28267;BME280;15525;45.568;5.448;2023-03-11T00:00:25;97270.28;;;12.10;57.94
28267;BME280;15525;45.568;5.448;2023-03-11T00:02:53;97255.97;;;12.14;57.39
28267;BME280;15525;45.568;5.448;2023-03-11T00:05:25;97266.22;;;12.12;58.28
28267;BME280;15525;45.568;5.448;2023-03-11T00:07:51;97193.09;;;11.66;58.18
28267;BME280;15525;45.568;5.448;2023-03-11T00:10:29;97214.75;;;11.83;58.81
28267;BME280;15525;45.568;5.448;2023-03-11T00:12:55;97211.88;;;11.93;58.09
28267;BME280;15525;45.568;5.448;2023-03-11T00:15:20;97170.84;;;11.65;58.04
28267;BME280;15525;45.568;5.448;2023-03-11T00:17:47;97237.09;;;12.06;57.97
28267;BME280;15525;45.568;5.448;2023-03-11T00:20:22;97241.78;;;12.14;58.41
28267;BME280;15525;45.568;5.448;2023-03-11T00:22:48;97232.75;;;12.10;57.66
28267;BME280;15525;45.568;5.448;2023-03-11T00:25:16;97232.94;;;12.13;57.94
28267;BME280;15525;45.568;5.448;2023-03-11T00:27:42;97231.94;;;12.09;57.85
28267;BME280;15525;45.568;5.448;2023-03-11T00:30:09;97233.13;;;12.03;57.50
28267;BME280;15525;45.568;5.448;2023-03-11T00:32:35;97234.31;;;12.11;57.73
28267;BME280;15525;45.568;5.448;2023-03-11T00:35:00;97232.53;;;12.06;58.02
28267;BME280;15525;45.568;5.448;2023-03-11T00:37:26;97201.84;;;11.85;57.81
28267;BME280;15525;45.568;5.448;2023-03-11T00:39:51;97204.81;;;11.83;58.14
28267;BME280;15525;45.568;5.448;2023-03-11T00:42:17;97134.38;;;11.37;57.96
28267;BME280;15525;45.568;5.448;2023-03-11T00:44:42;97205.91;;;11.69;58.28
28267;BME280;15525;45.568;5.448;2023-03-11T00:47:10;97219.13;;;11.79;58.50
28267;BME280;15525;45.568;5.448;2023-03-11T00:49:35;97186.00;;;11.56;58.08
28267;BME280;15525;45.568;5.448;2023-03-11T00:52:01;97182.97;;;11.63;58.49
28267;BME280;15525;45.568;5.448;2023-03-11T00:54:27;97179.69;;;11.66;58.45
28267;BME280;15525;45.568;5.448;2023-03-11T00:56:52;97166.56;;;11.51;58.65
28267;BME280;15525;45.568;5.448;2023-03-11T00:59:17;97147.19;;;11.54;58.50
28267;BME280;15525;45.568;5.448;2023-03-11T01:01:43;97138.94;;;11.50;58.24
28267;BME280;15525;45.568;5.448;2023-03-11T01:04:08;97076.22;;;11.11;58.30
28267;BME280;15525;45.568;5.448;2023-03-11T01:06:34;97097.44;;;11.21;58.39
28267;BME280;15525;45.568;5.448;2023-03-11T01:08:59;97095.88;;;11.20;58.42
28267;BME280;15525;45.568;5.448;2023-03-11T01:11:25;97148.84;;;11.50;58.99
28267;BME280;15525;45.568;5.448;2023-03-11T01:13:50;97156.41;;;11.48;59.33
28267;BME280;15525;45.568;5.448;2023-03-11T01:16:15;97096.81;;;11.10;59.56
28267;BME280;15525;45.568;5.448;2023-03-11T01:18:41;97157.91;;;11.40;59.24
28267;BME280;15525;45.568;5.448;2023-03-11T01:21:06;97076.78;;;11.08;59.03
28267;BME280;15525;45.568;5.448;2023-03-11T01:23:32;97112.34;;;11.40;58.19
28267;BME280;15525;45.568;5.448;2023-03-11T01:25:57;97074.25;;;11.30;58.20
28267;BME280;15525;45.568;5.448;2023-03-11T01:28:23;97078.22;;;11.32;58.72
28267;BME280;15525;45.568;5.448;2023-03-11T01:30:48;97063.63;;;11.25;58.57
28267;BME280;15525;45.568;5.448;2023-03-11T01:33:16;97159.53;;;11.96;58.54
28267;BME280;15525;45.568;5.448;2023-03-11T01:35:43;97151.09;;;12.02;58.48
28267;BME280;15525;45.568;5.448;2023-03-11T01:38:09;97111.00;;;11.70;58.70
28267;BME280;15525;45.568;5.448;2023-03-11T01:40:38;97092.13;;;11.61;59.15
28267;BME280;15525;45.568;5.448;2023-03-11T01:43:06;97118.34;;;11.78;58.74
28267;BME280;15525;45.568;5.448;2023-03-11T01:48:16;97060.47;;;11.63;58.95
28267;BME280;15525;45.568;5.448;2023-03-11T01:50:45;97109.03;;;11.76;59.43
28267;BME280;15525;45.568;5.448;2023-03-11T01:53:12;97109.69;;;11.81;59.06
28267;BME280;15525;45.568;5.448;2023-03-11T01:55:39;97017.09;;;11.07;59.49
28267;BME280;15525;45.568;5.448;2023-03-11T01:58:07;97098.69;;;11.69;59.34
28267;BME280;15525;45.568;5.448;2023-03-11T02:00:36;97055.47;;;11.70;59.43
28267;BME280;15525;45.568;5.448;2023-03-11T02:03:08;97087.03;;;12.01;58.98
28267;BME280;15525;45.568;5.448;2023-03-11T02:05:35;97048.44;;;11.74;58.52
28267;BME280;15525;45.568;5.448;2023-03-11T02:08:00;97030.59;;;11.70;58.85
28267;BME280;15525;45.568;5.448;2023-03-11T02:10:27;97060.94;;;11.79;58.73
28267;BME280;15525;45.568;5.448;2023-03-11T02:12:52;96961.75;;;11.30;59.18
28267;BME280;15525;45.568;5.448;2023-03-11T02:15:18;96950.03;;;11.26;59.15
28267;BME280;15525;45.568;5.448;2023-03-11T02:17:43;96943.03;;;11.16;59.26
28267;BME280;15525;45.568;5.448;2023-03-11T02:23:14;97002.19;;;11.55;59.58
28267;BME280;15525;45.568;5.448;2023-03-11T02:26:04;97045.13;;;11.91;60.21
28267;BME280;15525;45.568;5.448;2023-03-11T02:28:33;97031.53;;;11.88;59.22
28267;BME280;15525;45.568;5.448;2023-03-11T02:31:00;96970.22;;;11.59;59.23
28267;BME280;15525;45.568;5.448;2023-03-11T02:33:30;97007.00;;;11.94;59.26
28267;BME280;15525;45.568;5.448;2023-03-11T02:35:56;96973.13;;;11.63;59.42
28267;BME280;15525;45.568;5.448;2023-03-11T02:38:22;96965.28;;;11.66;59.26
28267;BME280;15525;45.568;5.448;2023-03-11T02:43:27;97009.00;;;12.11;59.66
28267;BME280;15525;45.568;5.448;2023-03-11T02:45:55;96968.28;;;11.87;59.09
28267;BME280;15525;45.568;5.448;2023-03-11T02:48:22;97012.97;;;12.13;59.07
28267;BME280;15525;45.568;5.448;2023-03-11T02:50:48;96994.91;;;12.05;58.91
28267;BME280;15525;45.568;5.448;2023-03-11T02:53:13;97000.72;;;11.99;58.81
28267;BME280;15525;45.568;5.448;2023-03-11T02:55:39;96976.44;;;11.82;59.36
28267;BME280;15525;45.568;5.448;2023-03-11T02:58:04;96977.06;;;11.51;59.97
28267;BME280;15525;45.568;5.448;2023-03-11T03:00:30;96955.34;;;11.53;60.08
28267;BME280;15525;45.568;5.448;2023-03-11T03:02:56;96941.47;;;11.37;60.39
28267;BME280;15525;45.568;5.448;2023-03-11T03:05:22;96919.47;;;11.27;59.89
28267;BME280;15525;45.568;5.448;2023-03-11T03:07:49;96886.16;;;11.19;59.87
28267;BME280;15525;45.568;5.448;2023-03-11T03:10:16;96975.19;;;11.65;60.04
28267;BME280;15525;45.568;5.448;2023-03-11T03:12:41;96963.47;;;11.61;60.19
28267;BME280;15525;45.568;5.448;2023-03-11T03:15:08;97004.31;;;11.94;60.20
28267;BME280;15525;45.568;5.448;2023-03-11T03:17:34;96971.94;;;11.91;60.02
28267;BME280;15525;45.568;5.448;2023-03-11T03:19:59;96901.75;;;11.53;59.97
28267;BME280;15525;45.568;5.448;2023-03-11T03:22:25;96930.69;;;11.78;59.66
28267;BME280;15525;45.568;5.448;2023-03-11T03:24:52;96915.16;;;11.67;60.11
28267;BME280;15525;45.568;5.448;2023-03-11T03:27:18;96956.34;;;11.93;60.08
28267;BME280;15525;45.568;5.448;2023-03-11T03:29:43;96962.97;;;11.95;60.00
28267;BME280;15525;45.568;5.448;2023-03-11T03:32:09;96914.94;;;11.63;60.02
28267;BME280;15525;45.568;5.448;2023-03-11T03:34:34;96913.38;;;11.62;60.57
28267;BME280;15525;45.568;5.448;2023-03-11T03:36:59;96897.84;;;11.59;60.37
28267;BME280;15525;45.568;5.448;2023-03-11T03:39:25;96904.72;;;11.65;60.36
28267;BME280;15525;45.568;5.448;2023-03-11T03:41:50;96903.97;;;11.73;60.24
28267;BME280;15525;45.568;5.448;2023-03-11T03:44:16;96939.91;;;11.86;60.14
28267;BME280;15525;45.568;5.448;2023-03-11T03:46:41;96941.34;;;11.56;60.44
28267;BME280;15525;45.568;5.448;2023-03-11T03:49:07;96971.22;;;11.63;60.77
28267;BME280;15525;45.568;5.448;2023-03-11T03:51:33;96970.41;;;11.76;60.90
28267;BME280;15525;45.568;5.448;2023-03-11T03:53:58;96931.56;;;11.38;60.97
28267;BME280;15525;45.568;5.448;2023-03-11T03:56:24;96937.09;;;11.55;61.04
28267;BME280;15525;45.568;5.448;2023-03-11T03:58:49;96887.97;;;11.10;60.89
28267;BME280;15525;45.568;5.448;2023-03-11T04:01:14;96907.56;;;11.33;61.44
28267;BME280;15525;45.568;5.448;2023-03-11T04:03:40;96885.09;;;11.42;61.00
28267;BME280;15525;45.568;5.448;2023-03-11T04:06:08;96868.69;;;11.22;61.27
28267;BME280;15525;45.568;5.448;2023-03-11T04:08:35;96898.22;;;11.44;60.98
28267;BME280;15525;45.568;5.448;2023-03-11T04:11:00;96863.84;;;11.24;61.44
28267;BME280;15525;45.568;5.448;2023-03-11T04:13:26;96891.38;;;11.38;60.88
28267;BME280;15525;45.568;5.448;2023-03-11T04:15:51;96901.63;;;11.58;60.75
28267;BME280;15525;45.568;5.448;2023-03-11T04:18:17;96852.59;;;11.35;60.53
28267;BME280;15525;45.568;5.448;2023-03-11T04:20:42;96883.59;;;11.50;60.78
28267;BME280;15525;45.568;5.448;2023-03-11T04:23:08;96911.66;;;11.66;60.76
28267;BME280;15525;45.568;5.448;2023-03-11T04:25:33;96899.75;;;11.58;60.95
28267;BME280;15525;45.568;5.448;2023-03-11T04:27:59;96945.97;;;11.77;61.43
28267;BME280;15525;45.568;5.448;2023-03-11T04:30:24;96956.88;;;11.81;61.31
28267;BME280;15525;45.568;5.448;2023-03-11T04:32:50;96945.22;;;11.63;61.21
28267;BME280;15525;45.568;5.448;2023-03-11T04:35:15;96927.16;;;11.69;61.50
28267;BME280;15525;45.568;5.448;2023-03-11T04:37:41;96951.28;;;11.91;60.99
28267;BME280;15525;45.568;5.448;2023-03-11T04:40:07;96915.69;;;11.77;60.97
28267;BME280;15525;45.568;5.448;2023-03-11T04:42:34;96888.66;;;11.51;61.36
28267;BME280;15525;45.568;5.448;2023-03-11T04:45:00;96899.50;;;11.60;61.55
28267;BME280;15525;45.568;5.448;2023-03-11T04:47:25;96903.03;;;11.69;61.05
28267;BME280;15525;45.568;5.448;2023-03-11T04:49:50;96917.16;;;11.83;61.12
28267;BME280;15525;45.568;5.448;2023-03-11T04:52:16;96885.16;;;11.64;60.96
28267;BME280;15525;45.568;5.448;2023-03-11T04:54:41;96920.31;;;11.85;60.85
28267;BME280;15525;45.568;5.448;2023-03-11T04:57:07;96928.63;;;11.97;61.16
28267;BME280;15525;45.568;5.448;2023-03-11T04:59:32;96910.13;;;11.87;60.99
28267;BME280;15525;45.568;5.448;2023-03-11T05:01:58;96974.22;;;12.19;61.40
28267;BME280;15525;45.568;5.448;2023-03-11T05:04:23;96864.13;;;11.58;60.95
28267;BME280;15525;45.568;5.448;2023-03-11T05:06:49;96960.56;;;12.29;61.04
28267;BME280;15525;45.568;5.448;2023-03-11T05:09:17;96910.97;;;11.96;61.11
28267;BME280;15525;45.568;5.448;2023-03-11T05:11:42;96946.19;;;12.03;62.09
28267;BME280;15525;45.568;5.448;2023-03-11T05:14:08;96863.59;;;11.69;61.47
28267;BME280;15525;45.568;5.448;2023-03-11T05:16:34;96901.72;;;12.11;61.70
28267;BME280;15525;45.568;5.448;2023-03-11T05:19:00;96855.38;;;11.88;61.54
28267;BME280;15525;45.568;5.448;2023-03-11T05:21:25;96902.66;;;12.28;61.33
28267;BME280;15525;45.568;5.448;2023-03-11T05:23:50;96878.44;;;12.20;60.88
28267;BME280;15525;45.568;5.448;2023-03-11T05:26:16;96865.75;;;12.12;61.02
28267;BME280;15525;45.568;5.448;2023-03-11T05:28:41;96840.00;;;11.72;61.36
28267;BME280;15525;45.568;5.448;2023-03-11T05:31:10;96859.22;;;11.73;61.90
28267;BME280;15525;45.568;5.448;2023-03-11T05:33:36;96922.88;;;12.34;61.34
28267;BME280;15525;45.568;5.448;2023-03-11T05:36:09;96942.13;;;12.36;62.10
28267;BME280;15525;45.568;5.448;2023-03-11T05:38:35;96935.00;;;12.32;61.44
28267;BME280;15525;45.568;5.448;2023-03-11T05:41:01;96886.81;;;11.96;61.43
28267;BME280;15525;45.568;5.448;2023-03-11T05:43:27;96906.97;;;12.16;61.32
28267;BME280;15525;45.568;5.448;2023-03-11T05:45:52;96889.38;;;12.01;61.75
28267;BME280;15525;45.568;5.448;2023-03-11T05:48:18;96871.47;;;11.88;61.83
28267;BME280;15525;45.568;5.448;2023-03-11T05:50:43;96852.28;;;11.73;62.06
28267;BME280;15525;45.568;5.448;2023-03-11T05:53:08;96900.47;;;12.08;62.08
28267;BME280;15525;45.568;5.448;2023-03-11T05:55:34;96905.94;;;12.03;62.54
28267;BME280;15525;45.568;5.448;2023-03-11T05:57:59;96895.81;;;12.00;61.93
28267;BME280;15525;45.568;5.448;2023-03-11T06:00:25;96852.84;;;11.83;62.09
28267;BME280;15525;45.568;5.448;2023-03-11T06:02:53;96911.72;;;12.19;62.42
28267;BME280;15525;45.568;5.448;2023-03-11T06:05:19;96883.22;;;12.01;62.03
28267;BME280;15525;45.568;5.448;2023-03-11T06:07:45;96938.78;;;12.31;62.47
28267;BME280;15525;45.568;5.448;2023-03-11T06:10:10;96904.50;;;11.97;62.14
28267;BME280;15525;45.568;5.448;2023-03-11T06:12:36;96886.88;;;11.82;62.26
28267;BME280;15525;45.568;5.448;2023-03-11T06:15:04;96879.38;;;11.71;62.46
28267;BME280;15525;45.568;5.448;2023-03-11T06:17:29;96934.97;;;12.01;62.34
28267;BME280;15525;45.568;5.448;2023-03-11T06:19:55;96940.47;;;11.96;62.76
28267;BME280;15525;45.568;5.448;2023-03-11T06:22:20;96874.03;;;11.71;62.37
28267;BME280;15525;45.568;5.448;2023-03-11T06:24:45;96921.44;;;11.84;62.42
28267;BME280;15525;45.568;5.448;2023-03-11T06:27:11;96964.94;;;12.03;62.63
28267;BME280;15525;45.568;5.448;2023-03-11T06:29:36;96953.13;;;12.04;62.48
28267;BME280;15525;45.568;5.448;2023-03-11T06:32:02;96949.84;;;12.07;62.68
28267;BME280;15525;45.568;5.448;2023-03-11T06:34:27;96909.88;;;11.61;63.13
28267;BME280;15525;45.568;5.448;2023-03-11T06:36:53;96982.09;;;11.80;62.98
28267;BME280;15525;45.568;5.448;2023-03-11T06:39:19;96978.19;;;11.64;63.37
28267;BME280;15525;45.568;5.448;2023-03-11T06:41:44;97028.28;;;12.35;63.20
28267;BME280;15525;45.568;5.448;2023-03-11T06:44:10;97030.31;;;12.29;62.75
28267;BME280;15525;45.568;5.448;2023-03-11T06:46:35;97047.84;;;12.13;63.26
28267;BME280;15525;45.568;5.448;2023-03-11T06:49:01;97003.72;;;11.97;63.28
28267;BME280;15525;45.568;5.448;2023-03-11T06:51:26;97019.38;;;12.04;62.88
28267;BME280;15525;45.568;5.448;2023-03-11T06:53:52;97062.38;;;12.34;62.84
28267;BME280;15525;45.568;5.448;2023-03-11T06:56:20;97022.06;;;12.26;62.43
28267;BME280;15525;45.568;5.448;2023-03-11T06:58:46;97073.63;;;12.58;62.47
28267;BME280;15525;45.568;5.448;2023-03-11T07:01:14;97079.50;;;12.60;63.03
28267;BME280;15525;45.568;5.448;2023-03-11T07:03:41;97109.00;;;12.60;62.66
28267;BME280;15525;45.568;5.448;2023-03-11T07:06:11;97074.47;;;12.67;63.09
28267;BME280;15525;45.568;5.448;2023-03-11T07:08:37;97065.88;;;12.57;62.22
28267;BME280;15525;45.568;5.448;2023-03-11T07:11:05;97033.72;;;12.43;62.82
28267;BME280;15525;45.568;5.448;2023-03-11T07:13:32;97087.59;;;12.91;62.58
28267;BME280;15525;45.568;5.448;2023-03-11T07:16:05;96950.97;;;11.93;63.06
28267;BME280;15525;45.568;5.448;2023-03-11T07:18:32;97096.19;;;12.79;62.66
28267;BME280;15525;45.568;5.448;2023-03-11T07:20:58;97055.41;;;12.77;62.58
28267;BME280;15525;45.568;5.448;2023-03-11T07:23:25;97003.72;;;12.41;62.30
28267;BME280;15525;45.568;5.448;2023-03-11T07:25:50;96996.88;;;12.35;62.22
28267;BME280;15525;45.568;5.448;2023-03-11T07:28:17;97080.41;;;13.00;62.40
28267;BME280;15525;45.568;5.448;2023-03-11T07:30:42;97063.84;;;13.06;62.32
28267;BME280;15525;45.568;5.448;2023-03-11T07:33:10;97085.59;;;13.27;61.55
28267;BME280;15525;45.568;5.448;2023-03-11T07:35:36;97073.91;;;13.31;61.38
28267;BME280;15525;45.568;5.448;2023-03-11T07:38:01;97042.69;;;13.13;61.38
28267;BME280;15525;45.568;5.448;2023-03-11T07:40:27;97068.25;;;13.41;61.12
28267;BME280;15525;45.568;5.448;2023-03-11T07:42:52;97038.13;;;13.14;61.25
28267;BME280;15525;45.568;5.448;2023-03-11T07:45:17;97040.81;;;13.14;61.67
28267;BME280;15525;45.568;5.448;2023-03-11T07:47:43;97017.91;;;12.94;61.55
28267;BME280;15525;45.568;5.448;2023-03-11T07:50:08;97122.94;;;13.76;61.58
28267;BME280;15525;45.568;5.448;2023-03-11T07:52:34;97088.09;;;13.62;61.04
28267;BME280;15525;45.568;5.448;2023-03-11T07:55:00;97057.56;;;13.58;61.16
28267;BME280;15525;45.568;5.448;2023-03-11T07:57:25;97032.09;;;13.47;61.06
28267;BME280;15525;45.568;5.448;2023-03-11T07:59:50;97111.88;;;13.77;60.91
28267;BME280;15525;45.568;5.448;2023-03-11T08:02:16;97049.13;;;13.04;61.52
28267;BME280;15525;45.568;5.448;2023-03-11T08:04:41;97129.19;;;13.54;61.87
28267;BME280;15525;45.568;5.448;2023-03-11T08:07:07;97072.00;;;13.01;62.30
28267;BME280;15525;45.568;5.448;2023-03-11T08:09:34;97110.94;;;13.34;62.24
28267;BME280;15525;45.568;5.448;2023-03-11T08:12:00;97139.25;;;13.40;62.33
28267;BME280;15525;45.568;5.448;2023-03-11T08:14:25;97142.31;;;13.47;62.37
28267;BME280;15525;45.568;5.448;2023-03-11T08:16:51;97092.81;;;13.48;61.93
28267;BME280;15525;45.568;5.448;2023-03-11T08:19:16;97168.06;;;13.87;61.76
28267;BME280;15525;45.568;5.448;2023-03-11T08:21:42;97147.13;;;13.67;61.89
28267;BME280;15525;45.568;5.448;2023-03-11T08:24:10;97088.69;;;13.51;61.71
28267;BME280;15525;45.568;5.448;2023-03-11T08:26:37;97182.56;;;14.08;61.89
28267;BME280;15525;45.568;5.448;2023-03-11T08:29:03;97189.19;;;14.02;62.09
28267;BME280;15525;45.568;5.448;2023-03-11T08:31:30;97180.25;;;13.85;62.29
28267;BME280;15525;45.568;5.448;2023-03-11T08:34:02;97172.91;;;13.38;63.92
28267;BME280;15525;45.568;5.448;2023-03-11T08:36:28;97158.53;;;13.42;63.19
28267;BME280;15525;45.568;5.448;2023-03-11T08:38:54;97123.66;;;13.20;62.65
28267;BME280;15525;45.568;5.448;2023-03-11T08:41:19;97190.56;;;13.91;62.55
28267;BME280;15525;45.568;5.448;2023-03-11T08:43:45;97182.31;;;13.79;62.03
28267;BME280;15525;45.568;5.448;2023-03-11T08:48:52;97174.81;;;14.15;61.86
28267;BME280;15525;45.568;5.448;2023-03-11T08:51:18;97180.41;;;14.27;61.45
28267;BME280;15525;45.568;5.448;2023-03-11T08:53:44;97213.88;;;14.52;61.59
28267;BME280;15525;45.568;5.448;2023-03-11T08:56:10;97143.00;;;14.17;61.53
28267;BME280;15525;45.568;5.448;2023-03-11T08:58:36;97215.47;;;14.61;61.26
28267;BME280;15525;45.568;5.448;2023-03-11T09:01:02;97222.31;;;14.67;61.52
28267;BME280;15525;45.568;5.448;2023-03-11T09:03:30;97180.41;;;14.27;61.78
28267;BME280;15525;45.568;5.448;2023-03-11T09:05:57;97228.25;;;14.39;62.27
28267;BME280;15525;45.568;5.448;2023-03-11T09:08:23;97199.41;;;14.22;62.47
28267;BME280;15525;45.568;5.448;2023-03-11T09:10:48;97217.69;;;14.51;62.14
28267;BME280;15525;45.568;5.448;2023-03-11T09:13:13;97129.25;;;14.19;62.05
28267;BME280;15525;45.568;5.448;2023-03-11T09:15:39;97212.16;;;14.56;61.81
28267;BME280;15525;45.568;5.448;2023-03-11T09:18:05;97209.63;;;14.59;62.07
28267;BME280;15525;45.568;5.448;2023-03-11T09:20:35;97202.34;;;14.68;62.19
28267;BME280;15525;45.568;5.448;2023-03-11T09:23:01;97185.53;;;14.54;62.01
28267;BME280;15525;45.568;5.448;2023-03-11T09:25:27;97177.25;;;14.25;62.89
28267;BME280;15525;45.568;5.448;2023-03-11T09:27:52;97136.97;;;14.12;62.40
28267;BME280;15525;45.568;5.448;2023-03-11T09:30:17;97143.00;;;14.17;62.30
28267;BME280;15525;45.568;5.448;2023-03-11T09:32:43;97251.16;;;14.75;62.33
28267;BME280;15525;45.568;5.448;2023-03-11T09:35:08;97231.19;;;14.76;62.41
28267;BME280;15525;45.568;5.448;2023-03-11T09:37:34;97231.50;;;14.75;61.98
28267;BME280;15525;45.568;5.448;2023-03-11T09:40:00;97165.53;;;14.30;62.33
28267;BME280;15525;45.568;5.448;2023-03-11T09:42:32;97251.19;;;15.09;61.86
28267;BME280;15525;45.568;5.448;2023-03-11T09:45:04;97260.84;;;14.85;62.57
28267;BME280;15525;45.568;5.448;2023-03-11T09:48:00;97159.38;;;14.38;63.47
28267;BME280;15525;45.568;5.448;2023-03-11T09:51:17;97273.69;;;14.96;62.80
28267;BME280;15525;45.568;5.448;2023-03-11T09:55:54;97235.66;;;15.40;61.73
28267;BME280;15525;45.568;5.448;2023-03-11T10:00:55;97270.34;;;15.76;61.39
28267;BME280;15525;45.568;5.448;2023-03-11T10:03:27;97267.00;;;15.70;61.12
28267;BME280;15525;45.568;5.448;2023-03-11T10:06:00;97246.09;;;15.33;61.86
28267;BME280;15525;45.568;5.448;2023-03-11T10:08:37;97267.94;;;15.91;61.11
28267;BME280;15525;45.568;5.448;2023-03-11T10:11:18;97265.69;;;15.93;61.73
28267;BME280;15525;45.568;5.448;2023-03-11T10:14:12;97247.47;;;15.82;61.68
28267;BME280;15525;45.568;5.448;2023-03-11T10:16:52;97267.06;;;16.08;61.08
28267;BME280;15525;45.568;5.448;2023-03-11T10:25:17;97273.34;;;16.66;60.13
28267;BME280;15525;45.568;5.448;2023-03-11T10:27:51;97184.19;;;16.08;60.39
28267;BME280;15525;45.568;5.448;2023-03-11T10:30:26;97276.03;;;16.37;60.84
28267;BME280;15525;45.568;5.448;2023-03-11T10:32:58;97246.34;;;16.29;60.93
28267;BME280;15525;45.568;5.448;2023-03-11T10:35:35;97279.03;;;16.36;61.14
28267;BME280;15525;45.568;5.448;2023-03-11T10:40:43;97248.25;;;16.28;61.39
28267;BME280;15525;45.568;5.448;2023-03-11T10:43:13;97285.22;;;16.45;61.47
28267;BME280;15525;45.568;5.448;2023-03-11T10:45:41;97252.81;;;15.99;61.90
28267;BME280;15525;45.568;5.448;2023-03-11T10:48:14;97247.06;;;15.46;63.32
28267;BME280;15525;45.568;5.448;2023-03-11T10:50:56;97289.84;;;15.90;63.57
28267;BME280;15525;45.568;5.448;2023-03-11T10:53:23;97248.72;;;15.93;62.44
28267;BME280;15525;45.568;5.448;2023-03-11T10:55:54;97288.56;;;16.42;62.79
28267;BME280;15525;45.568;5.448;2023-03-11T10:58:28;97271.91;;;16.69;61.74
28267;BME280;15525;45.568;5.448;2023-03-11T11:01:15;97271.59;;;17.40;61.19
28267;BME280;15525;45.568;5.448;2023-03-11T11:03:47;97284.94;;;17.37;60.52
28267;BME280;15525;45.568;5.448;2023-03-11T11:06:28;97242.41;;;16.84;61.34
28267;BME280;15525;45.568;5.448;2023-03-11T11:09:14;97283.91;;;16.59;62.34
28267;BME280;15525;45.568;5.448;2023-03-11T11:11:41;97279.69;;;16.41;62.23
28267;BME280;15525;45.568;5.448;2023-03-11T11:14:07;97278.78;;;16.87;62.08
28267;BME280;15525;45.568;5.448;2023-03-11T11:16:34;97283.88;;;16.88;61.50
28267;BME280;15525;45.568;5.448;2023-03-11T11:19:12;97223.22;;;16.77;61.71
28267;BME280;15525;45.568;5.448;2023-03-11T11:21:46;97260.88;;;17.64;60.24
28267;BME280;15525;45.568;5.448;2023-03-11T11:24:19;97261.63;;;17.97;59.24
28267;BME280;15525;45.568;5.448;2023-03-11T11:27:15;97259.03;;;17.89;58.65
28267;BME280;15525;45.568;5.448;2023-03-11T11:29:41;97262.63;;;18.37;58.26
28267;BME280;15525;45.568;5.448;2023-03-11T11:32:23;97272.09;;;18.79;56.58
28267;BME280;15525;45.568;5.448;2023-03-11T11:35:07;97265.28;;;18.25;55.87
28267;BME280;15525;45.568;5.448;2023-03-11T11:37:37;97298.66;;;18.05;58.17
28267;BME280;15525;45.568;5.448;2023-03-11T11:42:49;97294.66;;;16.97;58.07
28267;BME280;15525;45.568;5.448;2023-03-11T11:45:29;97300.41;;;17.16;58.37
28267;BME280;15525;45.568;5.448;2023-03-11T11:48:04;97279.69;;;16.99;58.00
28267;BME280;15525;45.568;5.448;2023-03-11T11:50:35;97313.31;;;17.10;59.24
28267;BME280;15525;45.568;5.448;2023-03-11T11:55:49;97308.47;;;17.65;56.43
28267;BME280;15525;45.568;5.448;2023-03-11T11:58:17;97280.06;;;17.51;57.06
28267;BME280;15525;45.568;5.448;2023-03-11T12:00:57;97300.56;;;17.93;56.54
28267;BME280;15525;45.568;5.448;2023-03-11T12:06:43;97297.97;;;18.08;54.95
28267;BME280;15525;45.568;5.448;2023-03-11T12:09:35;97305.06;;;17.89;55.74
28267;BME280;15525;45.568;5.448;2023-03-11T12:17:35;97237.75;;;18.23;54.55
28267;BME280;15525;45.568;5.448;2023-03-11T12:28:44;97291.78;;;18.08;54.16
28267;BME280;15525;45.568;5.448;2023-03-11T12:31:12;97252.41;;;18.10;54.56
28267;BME280;15525;45.568;5.448;2023-03-11T12:34:05;97295.84;;;18.46;54.18
28267;BME280;15525;45.568;5.448;2023-03-11T12:36:36;97270.97;;;18.44;53.67
28267;BME280;15525;45.568;5.448;2023-03-11T12:39:05;97286.47;;;18.11;54.26
28267;BME280;15525;45.568;5.448;2023-03-11T12:41:38;97302.53;;;18.16;55.08
28267;BME280;15525;45.568;5.448;2023-03-11T12:44:26;97293.13;;;18.46;53.51
28267;BME280;15525;45.568;5.448;2023-03-11T12:49:25;97280.59;;;18.54;53.80
28267;BME280;15525;45.568;5.448;2023-03-11T12:54:34;97290.38;;;17.90;55.21
28267;BME280;15525;45.568;5.448;2023-03-11T13:08:43;97291.44;;;16.74;58.48
28267;BME280;15525;45.568;5.448;2023-03-11T13:14:31;97311.88;;;16.55;59.48
28267;BME280;15525;45.568;5.448;2023-03-11T13:17:27;97314.03;;;16.99;58.55
28267;BME280;15525;45.568;5.448;2023-03-11T13:19:56;97301.63;;;16.98;57.28
28267;BME280;15525;45.568;5.448;2023-03-11T13:26:09;97314.97;;;17.03;57.83
28267;BME280;15525;45.568;5.448;2023-03-11T13:37:32;97305.88;;;17.69;56.46
28267;BME280;15525;45.568;5.448;2023-03-11T13:42:35;97297.53;;;18.63;54.02
28267;BME280;15525;45.568;5.448;2023-03-11T13:45:02;97312.53;;;18.72;53.92
28267;BME280;15525;45.568;5.448;2023-03-11T13:47:32;97300.34;;;18.66;53.72
28267;BME280;15525;45.568;5.448;2023-03-11T13:50:07;97310.50;;;18.45;54.28
28267;BME280;15525;45.568;5.448;2023-03-11T13:52:37;97312.56;;;18.84;53.75
28267;BME280;15525;45.568;5.448;2023-03-11T13:55:16;97289.22;;;19.19;52.95
28267;BME280;15525;45.568;5.448;2023-03-11T13:57:53;97301.97;;;20.41;50.38
28267;BME280;15525;45.568;5.448;2023-03-11T14:00:24;97303.50;;;20.11;50.64
28267;BME280;15525;45.568;5.448;2023-03-11T14:05:30;97326.09;;;18.84;52.31
28267;BME280;15525;45.568;5.448;2023-03-11T14:08:24;97336.63;;;18.29;54.59
28267;BME280;15525;45.568;5.448;2023-03-11T14:11:14;97344.34;;;18.27;54.60
28267;BME280;15525;45.568;5.448;2023-03-11T14:13:44;97342.28;;;18.24;54.86
28267;BME280;15525;45.568;5.448;2023-03-11T14:18:45;97322.25;;;18.37;54.56
28267;BME280;15525;45.568;5.448;2023-03-11T14:21:17;97317.88;;;18.57;53.68
28267;BME280;15525;45.568;5.448;2023-03-11T14:23:48;97308.19;;;18.23;53.75
28267;BME280;15525;45.568;5.448;2023-03-11T14:26:27;97345.72;;;18.33;53.92
28267;BME280;15525;45.568;5.448;2023-03-11T14:28:56;97343.78;;;18.01;55.05
28267;BME280;15525;45.568;5.448;2023-03-11T14:31:39;97350.91;;;17.53;55.56
28267;BME280;15525;45.568;5.448;2023-03-11T14:34:17;97347.59;;;17.47;55.94